Time,TemperatureF,DewpointF,PressureIn,WindDirection,WindDirectionDegrees,WindSpeedMPH,WindSpeedGustMPH,Humidity,HourlyPrecipIn,Conditions,Clouds,dailyrainin,SolarRadiationWatts/m^2,SoftwareType,DateUTC
2013-07-10 00:02:00,87.2,72.0,29.85,SSW,213,5.0,7.0,60,0.00,,,0.00,0,weatherlink.com 1.10,2013-07-10 05:02:00,
2013-07-10 00:17:00,86.8,72.0,29.86,SSW,211,4.0,6.0,61,0.00,,,0.00,0,weatherlink.com 1.10,2013-07-10 05:17:00,
2013-07-10 00:32:00,87.0,71.0,29.86,SSW,196,4.0,8.0,60,0.00,,,0.00,0,weatherlink.com 1.10,2013-07-10 05:32:00,
2013-07-10 00:47:00,87.2,71.0,29.85,South,190,7.0,10.0,58,0.00,,,0.00,0,weatherlink.com 1.10,2013-07-10 05:47:00,
2013-07-10 01:02:00,86.5,69.0,29.83,West,269,0.0,9.0,57,0.00,,,0.00,0,weatherlink.com 1.10,2013-07-10 06:02:00,
2013-07-10 01:17:00,85.6,67.0,29.82,WNW,298,2.0,7.0,54,0.00,,,0.00,0,weatherlink.com 1.10,2013-07-10 06:17:00,
2013-07-10 01:32:00,84.7,67.0,29.84,NW,305,1.0,3.0,56,0.00,,,0.00,0,weatherlink.com 1.10,2013-07-10 06:32:00,
2013-07-10 01:47:00,83.6,67.0,29.85,NW,317,4.0,5.0,57,0.00,,,0.00,0,weatherlink.com 1.10,2013-07-10 06:47:00,
2013-07-10 02:02:00,82.9,68.0,29.87,SW,230,5.0,12.0,60,0.00,,,0.00,0,weatherlink.com 1.10,2013-07-10 07:02:00,
2013-07-10 02:17:00,82.4,67.0,29.87,NW,319,1.0,13.0,60,0.00,,,0.00,0,weatherlink.com 1.10,2013-07-10 07:17:00,
2013-07-10 02:32:00,81.8,67.0,29.86,NNE,12,0.0,8.0,61,0.00,,,0.00,0,weatherlink.com 1.10,2013-07-10 07:32:00,
2013-07-10 02:47:00,81.5,67.0,29.85,West,270,2.0,6.0,62,0.00,,,0.00,0,weatherlink.com 1.10,2013-07-10 07:47:00,
2013-07-10 03:03:00,81.2,67.0,29.87,NW,323,0.0,6.0,63,0.00,,,0.00,0,weatherlink.com 1.10,2013-07-10 08:03:00,
2013-07-10 03:18:00,80.7,67.0,29.87,NW,323,0.0,1.0,64,0.00,,,0.00,0,weatherlink.com 1.10,2013-07-10 08:18:00,
2013-07-10 03:33:00,79.9,68.0,29.87,NE,47,0.0,3.0,66,0.00,,,0.00,0,weatherlink.com 1.10,2013-07-10 08:33:00,
2013-07-10 03:48:00,80.0,68.0,29.87,NE,46,0.0,4.0,66,0.00,,,0.00,0,weatherlink.com 1.10,2013-07-10 08:48:00,
2013-07-10 04:03:00,80.0,68.0,29.86,North,360,0.0,7.0,66,0.00,,,0.00,0,weatherlink.com 1.10,2013-07-10 09:03:00,
2013-07-10 04:18:00,79.6,68.0,29.86,North,360,0.0,3.0,67,0.00,,,0.00,0,weatherlink.com 1.10,2013-07-10 09:18:00,
2013-07-10 04:33:00,79.3,67.0,29.87,NNW,329,0.0,1.0,67,0.00,,,0.00,0,weatherlink.com 1.10,2013-07-10 09:33:00,
2013-07-10 04:48:00,78.9,67.0,29.87,ENE,59,0.0,3.0,68,0.00,,,0.00,0,weatherlink.com 1.10,2013-07-10 09:48:00,
2013-07-10 05:03:00,78.6,67.0,29.88,South,170,0.0,5.0,68,0.00,,,0.00,0,weatherlink.com 1.10,2013-07-10 10:03:00,
2013-07-10 05:18:00,78.5,67.0,29.88,WSW,254,0.0,3.0,68,0.00,,,0.00,0,weatherlink.com 1.10,2013-07-10 10:18:00,
2013-07-10 05:33:00,78.5,66.0,29.88,WSW,253,1.0,3.0,66,0.00,,,0.00,0,weatherlink.com 1.10,2013-07-10 10:33:00,
2013-07-10 05:48:00,78.4,67.0,29.88,WSW,253,0.0,2.0,67,0.00,,,0.00,0,weatherlink.com 1.10,2013-07-10 10:48:00,
2013-07-10 06:03:00,77.1,66.0,29.89,WSW,253,0.0,1.0,68,0.00,,,0.00,0,weatherlink.com 1.10,2013-07-10 11:03:00,
2013-07-10 06:18:00,76.9,66.0,29.89,WSW,253,1.0,1.0,68,0.00,,,0.00,9,weatherlink.com 1.10,2013-07-10 11:18:00,
2013-07-10 06:33:00,76.8,66.0,29.90,WSW,253,0.0,1.0,70,0.00,,,0.00,14,weatherlink.com 1.10,2013-07-10 11:33:00,
2013-07-10 06:48:00,76.6,67.0,29.90,WSW,253,0.0,0.0,71,0.00,,,0.00,26,weatherlink.com 1.10,2013-07-10 11:48:00,
2013-07-10 07:03:00,77.0,67.0,29.90,WSW,253,0.0,0.0,72,0.00,,,0.00,63,weatherlink.com 1.10,2013-07-10 12:03:00,
2013-07-10 07:18:00,78.8,69.0,29.91,WSW,253,0.0,1.0,71,0.00,,,0.00,111,weatherlink.com 1.10,2013-07-10 12:18:00,
2013-07-10 07:33:00,79.3,69.0,29.91,West,260,0.0,3.0,71,0.00,,,0.00,74,weatherlink.com 1.10,2013-07-10 12:33:00,
2013-07-10 07:48:00,78.0,69.0,29.91,WSW,238,0.0,2.0,73,0.00,,,0.00,171,weatherlink.com 1.10,2013-07-10 12:48:00,
2013-07-10 08:03:00,79.6,69.0,29.92,WSW,242,1.0,3.0,70,0.00,,,0.00,239,weatherlink.com 1.10,2013-07-10 13:03:00,
2013-07-10 08:18:00,81.2,70.0,29.91,NW,309,0.0,3.0,69,0.00,,,0.00,283,weatherlink.com 1.10,2013-07-10 13:18:00,
2013-07-10 08:33:00,81.7,71.0,29.92,NNW,335,2.0,4.0,70,0.00,,,0.00,323,weatherlink.com 1.10,2013-07-10 13:33:00,
2013-07-10 08:48:00,82.6,71.0,29.92,NNW,333,0.0,5.0,69,0.00,,,0.00,364,weatherlink.com 1.10,2013-07-10 13:48:00,
2013-07-10 09:03:00,83.5,73.0,29.92,North,351,0.0,3.0,70,0.00,,,0.00,406,weatherlink.com 1.10,2013-07-10 14:03:00,
2013-07-10 09:19:00,83.3,73.0,29.93,NNE,23,0.0,4.0,71,0.00,,,0.00,445,weatherlink.com 1.10,2013-07-10 14:19:00,
2013-07-10 09:34:00,84.8,74.0,29.93,NNE,13,0.0,4.0,70,0.00,,,0.00,482,weatherlink.com 1.10,2013-07-10 14:34:00,
2013-07-10 09:49:00,85.0,74.0,29.94,NNE,13,4.0,5.0,70,0.00,,,0.00,524,weatherlink.com 1.10,2013-07-10 14:49:00,
2013-07-10 10:04:00,85.3,73.0,29.94,ENE,58,1.0,4.0,67,0.00,,,0.00,554,weatherlink.com 1.10,2013-07-10 15:04:00,
2013-07-10 10:19:00,84.6,74.0,29.95,NE,44,4.0,7.0,70,0.00,,,0.00,348,weatherlink.com 1.10,2013-07-10 15:19:00,
2013-07-10 10:34:00,83.9,73.0,29.95,ENE,62,2.0,5.0,70,0.00,,,0.00,246,weatherlink.com 1.10,2013-07-10 15:34:00,
2013-07-10 10:49:00,84.4,74.0,29.95,ENE,61,0.0,4.0,71,0.00,,,0.00,346,weatherlink.com 1.10,2013-07-10 15:49:00,
2013-07-10 11:04:00,84.0,73.0,29.96,ENE,59,2.0,5.0,70,0.00,,,0.00,181,weatherlink.com 1.10,2013-07-10 16:04:00,
2013-07-10 11:19:00,84.3,74.0,29.96,NE,55,0.0,4.0,71,0.00,,,0.00,410,weatherlink.com 1.10,2013-07-10 16:19:00,
2013-07-10 11:34:00,86.2,74.0,29.96,East,97,3.0,9.0,68,0.00,,,0.00,722,weatherlink.com 1.10,2013-07-10 16:34:00,
2013-07-10 11:49:00,86.5,74.0,29.96,NE,38,3.0,12.0,67,0.00,,,0.00,691,weatherlink.com 1.10,2013-07-10 16:49:00,
2013-07-10 12:04:00,84.8,74.0,29.97,NE,35,2.0,9.0,69,0.00,,,0.00,211,weatherlink.com 1.10,2013-07-10 17:04:00,
2013-07-10 12:19:00,83.4,73.0,29.98,ENE,58,3.0,7.0,70,0.00,,,0.00,258,weatherlink.com 1.10,2013-07-10 17:19:00,
2013-07-10 12:34:00,85.3,73.0,29.97,NE,56,2.0,9.0,67,0.00,,,0.00,413,weatherlink.com 1.10,2013-07-10 17:34:00,
2013-07-10 12:49:00,86.6,74.0,29.97,ENE,78,1.0,8.0,66,0.00,,,0.00,830,weatherlink.com 1.10,2013-07-10 17:49:00,
2013-07-10 13:04:00,87.3,74.0,29.96,ENE,66,4.0,7.0,65,0.00,,,0.00,858,weatherlink.com 1.10,2013-07-10 18:04:00,
2013-07-10 13:19:00,87.2,73.0,29.96,ENE,61,8.0,9.0,62,0.00,,,0.00,853,weatherlink.com 1.10,2013-07-10 18:19:00,
2013-07-10 13:34:00,88.2,73.0,29.95,ENE,71,1.0,7.0,61,0.00,,,0.00,865,weatherlink.com 1.10,2013-07-10 18:34:00,
2013-07-10 13:49:00,88.3,73.0,29.95,NE,49,1.0,9.0,61,0.00,,,0.00,860,weatherlink.com 1.10,2013-07-10 18:49:00,
2013-07-10 14:05:00,88.8,74.0,29.95,East,88,6.0,9.0,62,0.00,,,0.00,865,weatherlink.com 1.10,2013-07-10 19:05:00,
2013-07-10 14:19:00,88.7,74.0,29.95,East,88,3.0,9.0,61,0.00,,,0.00,872,weatherlink.com 1.10,2013-07-10 19:19:00,
2013-07-10 14:34:00,89.7,71.0,29.95,NNE,30,4.0,9.0,55,0.00,,,0.00,858,weatherlink.com 1.10,2013-07-10 19:34:00,
2013-07-10 14:50:00,90.5,66.0,29.95,NE,53,0.0,12.0,45,0.00,,,0.00,846,weatherlink.com 1.10,2013-07-10 19:50:00,
2013-07-10 15:05:00,91.5,65.0,29.94,NE,46,7.0,9.0,41,0.00,,,0.00,842,weatherlink.com 1.10,2013-07-10 20:05:00,
2013-07-10 15:19:00,91.3,64.0,29.95,ENE,70,2.0,9.0,41,0.00,,,0.00,817,weatherlink.com 1.10,2013-07-10 20:19:00,
2013-07-10 15:34:00,91.3,63.0,29.95,NE,41,3.0,11.0,39,0.00,,,0.00,800,weatherlink.com 1.10,2013-07-10 20:34:00,
2013-07-10 15:49:00,91.7,65.0,29.95,ENE,58,2.0,8.0,41,0.00,,,0.00,772,weatherlink.com 1.10,2013-07-10 20:49:00,
2013-07-10 16:04:00,91.2,66.0,29.94,East,88,1.0,7.0,43,0.00,,,0.00,749,weatherlink.com 1.10,2013-07-10 21:04:00,
2013-07-10 16:19:00,91.0,66.0,29.94,ENE,57,1.0,8.0,44,0.00,,,0.00,722,weatherlink.com 1.10,2013-07-10 21:19:00,
2013-07-10 16:34:00,91.0,65.0,29.94,NNW,348,4.0,8.0,42,0.00,,,0.00,696,weatherlink.com 1.10,2013-07-10 21:34:00,
2013-07-10 17:04:00,91.3,66.0,29.92,NNE,27,1.0,6.0,44,0.00,,,0.00,619,weatherlink.com 1.10,2013-07-10 22:04:00,
2013-07-10 17:19:00,90.6,66.0,29.92,North,355,2.0,7.0,44,0.00,,,0.00,584,weatherlink.com 1.10,2013-07-10 22:19:00,
2013-07-10 17:34:00,89.9,66.0,29.91,North,5,5.0,9.0,45,0.00,,,0.00,538,weatherlink.com 1.10,2013-07-10 22:34:00,
2013-07-10 17:49:00,89.5,65.0,29.91,NE,35,3.0,10.0,45,0.00,,,0.00,497,weatherlink.com 1.10,2013-07-10 22:49:00,
2013-07-10 18:04:00,89.3,65.0,29.91,North,5,4.0,8.0,45,0.00,,,0.00,455,weatherlink.com 1.10,2013-07-10 23:04:00,
2013-07-10 18:19:00,89.3,65.0,29.91,NE,48,0.0,7.0,44,0.00,,,0.00,406,weatherlink.com 1.10,2013-07-10 23:19:00,
2013-07-10 18:34:00,89.0,66.0,29.91,NNE,26,5.0,5.0,46,0.00,,,0.00,359,weatherlink.com 1.10,2013-07-10 23:34:00,
2013-07-10 18:49:00,88.4,66.0,29.91,NE,54,3.0,6.0,48,0.00,,,0.00,313,weatherlink.com 1.10,2013-07-10 23:49:00,
2013-07-10 19:04:00,87.9,66.0,29.91,NE,46,3.0,6.0,49,0.00,,,0.00,267,weatherlink.com 1.10,2013-07-11 00:04:00,
2013-07-10 19:19:00,87.7,67.0,29.90,NE,42,0.0,4.0,50,0.00,,,0.00,218,weatherlink.com 1.10,2013-07-11 00:19:00,
2013-07-10 19:35:00,86.8,67.0,29.90,ENE,76,1.0,3.0,52,0.00,,,0.00,176,weatherlink.com 1.10,2013-07-11 00:35:00,
2013-07-10 19:49:00,86.0,66.0,29.90,ENE,68,0.0,5.0,52,0.00,,,0.00,123,weatherlink.com 1.10,2013-07-11 00:49:00,
2013-07-10 20:04:00,85.1,67.0,29.91,ENE,68,0.0,2.0,54,0.00,,,0.00,25,weatherlink.com 1.10,2013-07-11 01:04:00,
2013-07-10 20:19:00,84.1,67.0,29.91,ENE,68,0.0,4.0,56,0.00,,,0.00,19,weatherlink.com 1.10,2013-07-11 01:19:00,
2013-07-10 20:35:00,83.2,66.0,29.91,ENE,68,0.0,1.0,57,0.00,,,0.00,11,weatherlink.com 1.10,2013-07-11 01:35:00,
2013-07-10 20:50:00,82.2,66.0,29.92,ENE,68,0.0,1.0,59,0.00,,,0.00,0,weatherlink.com 1.10,2013-07-11 01:50:00,
2013-07-10 21:05:00,81.1,66.0,29.93,ENE,68,0.0,1.0,61,0.00,,,0.00,0,weatherlink.com 1.10,2013-07-11 02:05:00,
2013-07-10 21:20:00,80.8,66.0,29.93,ENE,68,1.0,3.0,61,0.00,,,0.00,0,weatherlink.com 1.10,2013-07-11 02:20:00,
2013-07-10 21:35:00,80.4,66.0,29.93,ENE,68,0.0,3.0,62,0.00,,,0.00,0,weatherlink.com 1.10,2013-07-11 02:35:00,
2013-07-10 21:50:00,79.7,65.0,29.93,ENE,68,0.0,1.0,61,0.00,,,0.00,0,weatherlink.com 1.10,2013-07-11 02:50:00,
2013-07-10 22:05:00,78.9,65.0,29.93,ENE,68,0.0,1.0,63,0.00,,,0.00,0,weatherlink.com 1.10,2013-07-11 03:05:00,
2013-07-10 22:20:00,78.3,65.0,29.95,ENE,68,0.0,1.0,64,0.00,,,0.00,0,weatherlink.com 1.10,2013-07-11 03:20:00,
2013-07-10 22:35:00,77.2,64.0,29.95,ENE,68,0.0,1.0,64,0.00,,,0.00,0,weatherlink.com 1.10,2013-07-11 03:35:00,
2013-07-10 22:50:00,77.2,65.0,29.96,ENE,68,1.0,1.0,65,0.00,,,0.00,0,weatherlink.com 1.10,2013-07-11 03:50:00,
2013-07-10 23:05:00,76.6,64.0,29.96,ENE,68,0.0,2.0,65,0.00,,,0.00,0,weatherlink.com 1.10,2013-07-11 04:05:00,
2013-07-10 23:20:00,76.0,64.0,29.96,ENE,68,0.0,1.0,66,0.00,,,0.00,0,weatherlink.com 1.10,2013-07-11 04:20:00,
2013-07-10 23:35:00,76.0,65.0,29.96,ENE,68,0.0,1.0,68,0.00,,,0.00,0,weatherlink.com 1.10,2013-07-11 04:35:00,
2013-07-10 23:50:00,75.7,65.0,29.96,ENE,68,0.0,0.0,69,0.00,,,0.00,0,weatherlink.com 1.10,2013-07-11 04:50:00,